sensor_id;sensor_type;location;lat;lon;timestamp;noise_LAeq;noise_LA_min;noise_LA_max;noise_LA01;noise_LA95
38366;Laerm;943;51.568;6.998;2023-04-01T00:02:10;51.80;37.41;81.05;;
38366;Laerm;943;51.568;6.998;2023-04-01T00:04:39;43.45;38.70;64.41;;
38366;Laerm;943;51.568;6.998;2023-04-01T00:07:07;70.32;37.24;91.05;;
38366;Laerm;943;51.568;6.998;2023-04-01T00:09:35;52.78;38.71;79.87;;
38366;Laerm;943;51.568;6.998;2023-04-01T00:12:04;68.41;37.08;91.72;;
38366;Laerm;943;51.568;6.998;2023-04-01T00:14:32;42.40;37.22;50.21;;
38366;Laerm;943;51.568;6.998;2023-04-01T00:17:00;53.52;37.72;79.65;;
38366;Laerm;943;51.568;6.998;2023-04-01T00:19:28;46.67;38.60;72.21;;
38366;Laerm;943;51.568;6.998;2023-04-01T00:21:57;41.72;37.76;55.15;;
38366;Laerm;943;51.568;6.998;2023-04-01T00:24:25;54.85;37.32;81.11;;
38366;Laerm;943;51.568;6.998;2023-04-01T00:26:57;42.47;37.40;71.91;;
38366;Laerm;943;51.568;6.998;2023-04-01T00:29:28;53.40;38.27;81.68;;
38366;Laerm;943;51.568;6.998;2023-04-01T00:31:58;48.43;37.60;76.71;;
38366;Laerm;943;51.568;6.998;2023-04-01T00:34:26;45.23;38.54;67.95;;
38366;Laerm;943;51.568;6.998;2023-04-01T00:36:55;41.59;37.54;58.13;;
38366;Laerm;943;51.568;6.998;2023-04-01T00:39:23;43.84;38.06;64.11;;
38366;Laerm;943;51.568;6.998;2023-04-01T00:41:51;43.70;37.29;68.62;;
38366;Laerm;943;51.568;6.998;2023-04-01T00:44:29;48.34;37.72;74.45;;
38366;Laerm;943;51.568;6.998;2023-04-01T00:46:57;51.03;38.17;77.44;;
38366;Laerm;943;51.568;6.998;2023-04-01T00:49:39;50.99;39.16;77.68;;
38366;Laerm;943;51.568;6.998;2023-04-01T00:52:18;54.66;39.55;79.24;;
38366;Laerm;943;51.568;6.998;2023-04-01T00:54:57;53.48;39.20;82.32;;
38366;Laerm;943;51.568;6.998;2023-04-01T00:57:36;62.99;37.05;84.15;;
38366;Laerm;943;51.568;6.998;2023-04-01T01:00:11;49.43;38.04;74.57;;
38366;Laerm;943;51.568;6.998;2023-04-01T01:02:45;48.61;40.88;74.86;;
38366;Laerm;943;51.568;6.998;2023-04-01T01:05:20;42.62;38.84;53.19;;
38366;Laerm;943;51.568;6.998;2023-04-01T01:25:18;73.06;42.11;94.82;;
38366;Laerm;943;51.568;6.998;2023-04-01T01:38:16;48.13;37.87;74.44;;
38366;Laerm;943;51.568;6.998;2023-04-01T01:40:55;62.07;37.08;82.45;;
38366;Laerm;943;51.568;6.998;2023-04-01T01:43:37;40.24;36.63;49.70;;
38366;Laerm;943;51.568;6.998;2023-04-01T01:46:15;44.44;36.51;67.43;;
38366;Laerm;943;51.568;6.998;2023-04-01T01:48:48;48.60;37.90;73.94;;
38366;Laerm;943;51.568;6.998;2023-04-01T01:51:22;42.47;38.35;67.52;;
38366;Laerm;943;51.568;6.998;2023-04-01T01:53:51;67.19;38.99;87.94;;
38366;Laerm;943;51.568;6.998;2023-04-01T01:56:27;70.59;37.37;92.19;;
38366;Laerm;943;51.568;6.998;2023-04-01T01:59:07;61.65;38.05;87.66;;
38366;Laerm;943;51.568;6.998;2023-04-01T02:01:46;52.88;38.91;77.97;;
38366;Laerm;943;51.568;6.998;2023-04-01T02:04:19;47.50;37.48;75.66;;
38366;Laerm;943;51.568;6.998;2023-04-01T02:07:02;41.04;37.12;51.74;;
38366;Laerm;943;51.568;6.998;2023-04-01T02:09:32;55.02;37.98;81.41;;
38366;Laerm;943;51.568;6.998;2023-04-01T02:12:12;50.55;39.15;77.16;;
38366;Laerm;943;51.568;6.998;2023-04-01T02:15:03;61.18;38.32;85.06;;
38366;Laerm;943;51.568;6.998;2023-04-01T02:17:43;52.45;38.96;78.47;;
38366;Laerm;943;51.568;6.998;2023-04-01T02:20:23;58.47;38.43;82.05;;
38366;Laerm;943;51.568;6.998;2023-04-01T02:22:56;66.21;38.44;87.07;;
38366;Laerm;943;51.568;6.998;2023-04-01T02:25:36;65.49;37.81;88.37;;
38366;Laerm;943;51.568;6.998;2023-04-01T02:28:09;62.64;39.27;90.53;;
38366;Laerm;943;51.568;6.998;2023-04-01T02:30:42;52.02;38.46;71.88;;
38366;Laerm;943;51.568;6.998;2023-04-01T02:33:12;58.73;37.86;79.16;;
38366;Laerm;943;51.568;6.998;2023-04-01T02:35:40;64.18;38.05;88.30;;
38366;Laerm;943;51.568;6.998;2023-04-01T02:38:09;71.25;39.18;94.11;;
38366;Laerm;943;51.568;6.998;2023-04-01T02:40:57;59.05;37.46;84.86;;
38366;Laerm;943;51.568;6.998;2023-04-01T02:43:26;42.84;39.23;58.92;;
38366;Laerm;943;51.568;6.998;2023-04-01T02:45:55;51.02;39.48;70.52;;
38366;Laerm;943;51.568;6.998;2023-04-01T02:48:23;62.60;39.91;89.23;;
38366;Laerm;943;51.568;6.998;2023-04-01T02:50:51;65.35;41.23;88.48;;
38366;Laerm;943;51.568;6.998;2023-04-01T02:53:19;45.70;40.96;69.03;;
38366;Laerm;943;51.568;6.998;2023-04-01T02:55:47;60.17;41.00;85.06;;
38366;Laerm;943;51.568;6.998;2023-04-01T02:58:18;49.05;42.56;75.59;;
38366;Laerm;943;51.568;6.998;2023-04-01T03:00:47;51.32;46.54;71.37;;
38366;Laerm;943;51.568;6.998;2023-04-01T03:03:15;51.50;47.14;68.63;;
38366;Laerm;943;51.568;6.998;2023-04-01T03:05:42;53.93;48.25;79.07;;
38366;Laerm;943;51.568;6.998;2023-04-01T03:08:10;51.82;46.85;71.68;;
38366;Laerm;943;51.568;6.998;2023-04-01T03:10:39;48.58;44.63;62.13;;
38366;Laerm;943;51.568;6.998;2023-04-01T03:13:07;48.27;43.24;68.77;;
38366;Laerm;943;51.568;6.998;2023-04-01T03:15:35;45.71;41.30;63.38;;
38366;Laerm;943;51.568;6.998;2023-04-01T03:18:03;47.03;42.70;64.38;;
38366;Laerm;943;51.568;6.998;2023-04-01T03:20:31;51.30;43.26;71.02;;
38366;Laerm;943;51.568;6.998;2023-04-01T03:22:59;48.75;41.83;74.42;;
38366;Laerm;943;51.568;6.998;2023-04-01T03:25:27;46.33;42.59;62.88;;
38366;Laerm;943;51.568;6.998;2023-04-01T03:27:56;46.31;42.10;61.04;;
38366;Laerm;943;51.568;6.998;2023-04-01T03:30:28;46.52;42.22;61.14;;
38366;Laerm;943;51.568;6.998;2023-04-01T03:32:59;46.13;41.45;60.36;;
38366;Laerm;943;51.568;6.998;2023-04-01T03:35:31;48.68;43.73;69.54;;
38366;Laerm;943;51.568;6.998;2023-04-01T03:38:00;47.44;41.46;63.93;;
38366;Laerm;943;51.568;6.998;2023-04-01T03:40:27;47.73;40.74;68.20;;
38366;Laerm;943;51.568;6.998;2023-04-01T03:42:55;45.82;41.27;57.60;;
38366;Laerm;943;51.568;6.998;2023-04-01T03:45:23;46.10;40.58;61.62;;
38366;Laerm;943;51.568;6.998;2023-04-01T03:47:51;48.72;41.11;64.96;;
38366;Laerm;943;51.568;6.998;2023-04-01T03:50:20;54.33;42.54;74.29;;
38366;Laerm;943;51.568;6.998;2023-04-01T03:52:48;52.07;42.29;69.17;;
38366;Laerm;943;51.568;6.998;2023-04-01T03:55:16;51.22;42.24;70.07;;
38366;Laerm;943;51.568;6.998;2023-04-01T03:57:47;52.15;40.81;67.38;;
38366;Laerm;943;51.568;6.998;2023-04-01T04:00:18;53.17;41.38;78.37;;
38366;Laerm;943;51.568;6.998;2023-04-01T04:02:52;56.45;41.06;74.12;;
38366;Laerm;943;51.568;6.998;2023-04-01T04:05:27;59.18;42.25;80.64;;
38366;Laerm;943;51.568;6.998;2023-04-01T04:07:55;53.66;42.51;72.80;;
38366;Laerm;943;51.568;6.998;2023-04-01T04:10:24;64.35;41.65;86.16;;
38366;Laerm;943;51.568;6.998;2023-04-01T04:12:53;53.47;42.29;76.11;;
38366;Laerm;943;51.568;6.998;2023-04-01T04:15:23;61.06;41.95;84.42;;
38366;Laerm;943;51.568;6.998;2023-04-01T04:17:51;56.21;41.79;77.62;;
38366;Laerm;943;51.568;6.998;2023-04-01T04:20:19;65.66;41.89;88.25;;
38366;Laerm;943;51.568;6.998;2023-04-01T04:22:48;57.76;41.91;84.57;;
38366;Laerm;943;51.568;6.998;2023-04-01T04:25:16;63.34;43.02;84.47;;
38366;Laerm;943;51.568;6.998;2023-04-01T04:27:44;56.77;42.51;69.59;;
38366;Laerm;943;51.568;6.998;2023-04-01T04:30:13;59.75;42.06;82.92;;
38366;Laerm;943;51.568;6.998;2023-04-01T04:32:41;53.07;43.00;71.05;;
38366;Laerm;943;51.568;6.998;2023-04-01T04:35:13;55.01;42.28;72.53;;
38366;Laerm;943;51.568;6.998;2023-04-01T04:37:41;58.16;41.88;83.89;;
38366;Laerm;943;51.568;6.998;2023-04-01T04:40:10;55.46;43.46;71.75;;
38366;Laerm;943;51.568;6.998;2023-04-01T04:42:39;57.06;42.55;77.86;;
38366;Laerm;943;51.568;6.998;2023-04-01T04:45:11;58.94;43.08;80.65;;
38366;Laerm;943;51.568;6.998;2023-04-01T04:47:46;56.53;40.90;77.12;;
38366;Laerm;943;51.568;6.998;2023-04-01T04:50:14;53.34;40.48;70.34;;
38366;Laerm;943;51.568;6.998;2023-04-01T04:52:42;55.87;40.24;81.86;;
38366;Laerm;943;51.568;6.998;2023-04-01T04:55:10;52.74;42.11;74.41;;
38366;Laerm;943;51.568;6.998;2023-04-01T04:57:39;55.84;41.68;81.22;;
38366;Laerm;943;51.568;6.998;2023-04-01T05:00:09;50.15;42.22;65.84;;
38366;Laerm;943;51.568;6.998;2023-04-01T05:02:55;53.44;40.93;78.97;;
38366;Laerm;943;51.568;6.998;2023-04-01T05:05:23;56.46;42.36;83.51;;
38366;Laerm;943;51.568;6.998;2023-04-01T05:07:51;50.68;41.55;64.45;;
38366;Laerm;943;51.568;6.998;2023-04-01T05:10:20;50.39;42.69;70.78;;
38366;Laerm;943;51.568;6.998;2023-04-01T05:12:51;52.05;42.87;70.69;;
38366;Laerm;943;51.568;6.998;2023-04-01T05:15:21;49.71;42.17;62.38;;
38366;Laerm;943;51.568;6.998;2023-04-01T05:17:50;56.81;42.12;77.93;;
38366;Laerm;943;51.568;6.998;2023-04-01T05:20:18;52.21;42.59;73.33;;
38366;Laerm;943;51.568;6.998;2023-04-01T05:22:46;50.93;41.36;65.30;;
38366;Laerm;943;51.568;6.998;2023-04-01T05:25:14;47.83;41.26;63.05;;
38366;Laerm;943;51.568;6.998;2023-04-01T05:27:42;68.62;41.67;87.67;;
38366;Laerm;943;51.568;6.998;2023-04-01T05:30:11;45.96;41.18;59.14;;
38366;Laerm;943;51.568;6.998;2023-04-01T05:32:55;50.52;41.41;75.54;;
38366;Laerm;943;51.568;6.998;2023-04-01T05:35:24;54.25;42.01;83.56;;
38366;Laerm;943;51.568;6.998;2023-04-01T05:37:52;47.57;41.14;67.33;;
38366;Laerm;943;51.568;6.998;2023-04-01T05:40:21;47.02;43.39;56.98;;
38366;Laerm;943;51.568;6.998;2023-04-01T05:42:48;46.02;42.57;55.45;;
38366;Laerm;943;51.568;6.998;2023-04-01T05:45:18;47.16;41.72;62.97;;
38366;Laerm;943;51.568;6.998;2023-04-01T05:48:08;58.91;41.60;87.17;;
38366;Laerm;943;51.568;6.998;2023-04-01T05:50:41;47.98;42.29;75.22;;
38366;Laerm;943;51.568;6.998;2023-04-01T05:53:11;46.84;42.51;61.05;;
38366;Laerm;943;51.568;6.998;2023-04-01T05:55:42;46.43;41.94;60.10;;
38366;Laerm;943;51.568;6.998;2023-04-01T05:58:10;52.06;43.36;71.05;;
38366;Laerm;943;51.568;6.998;2023-04-01T06:00:40;51.92;42.39;75.72;;
38366;Laerm;943;51.568;6.998;2023-04-01T06:03:08;60.38;42.87;84.13;;
38366;Laerm;943;51.568;6.998;2023-04-01T06:05:43;49.43;42.43;69.91;;
38366;Laerm;943;51.568;6.998;2023-04-01T06:08:18;44.64;41.93;51.36;;
38366;Laerm;943;51.568;6.998;2023-04-01T06:17:16;48.71;42.07;72.82;;
38366;Laerm;943;51.568;6.998;2023-04-01T06:30:33;47.83;43.02;60.52;;
38366;Laerm;943;51.568;6.998;2023-04-01T06:37:07;53.99;42.09;77.51;;
38366;Laerm;943;51.568;6.998;2023-04-01T06:43:34;52.39;43.65;78.02;;
38366;Laerm;943;51.568;6.998;2023-04-01T06:47:02;64.63;43.64;87.15;;
38366;Laerm;943;51.568;6.998;2023-04-01T06:54:33;54.96;42.97;78.19;;
38366;Laerm;943;51.568;6.998;2023-04-01T06:57:42;51.99;43.15;78.02;;
38366;Laerm;943;51.568;6.998;2023-04-01T07:00:33;53.95;43.92;73.69;;
38366;Laerm;943;51.568;6.998;2023-04-01T07:03:36;67.92;43.84;91.33;;
38366;Laerm;943;51.568;6.998;2023-04-01T07:06:47;53.53;43.79;72.41;;
38366;Laerm;943;51.568;6.998;2023-04-01T07:09:45;70.77;43.86;94.83;;
38366;Laerm;943;51.568;6.998;2023-04-01T07:13:13;49.49;43.27;72.17;;
38366;Laerm;943;51.568;6.998;2023-04-01T07:16:41;54.87;44.40;81.90;;
38366;Laerm;943;51.568;6.998;2023-04-01T07:19:40;63.58;44.26;85.42;;
38366;Laerm;943;51.568;6.998;2023-04-01T07:22:48;50.51;44.18;74.16;;
38366;Laerm;943;51.568;6.998;2023-04-01T07:25:46;53.78;44.77;72.37;;
38366;Laerm;943;51.568;6.998;2023-04-01T07:28:38;50.85;44.12;65.64;;
38366;Laerm;943;51.568;6.998;2023-04-01T07:37:56;51.30;44.36;67.65;;
38366;Laerm;943;51.568;6.998;2023-04-01T07:48:40;51.68;45.74;76.79;;
38366;Laerm;943;51.568;6.998;2023-04-01T07:51:31;65.54;45.45;87.98;;
38366;Laerm;943;51.568;6.998;2023-04-01T07:54:37;56.30;44.77;77.43;;
38366;Laerm;943;51.568;6.998;2023-04-01T08:01:31;62.05;44.40;85.38;;
38366;Laerm;943;51.568;6.998;2023-04-01T08:15:37;51.35;43.94;78.38;;
38366;Laerm;943;51.568;6.998;2023-04-01T08:22:30;49.50;45.53;67.46;;
38366;Laerm;943;51.568;6.998;2023-04-01T08:25:06;55.91;46.74;81.37;;
38366;Laerm;943;51.568;6.998;2023-04-01T08:27:49;63.77;46.41;87.28;;
38366;Laerm;943;51.568;6.998;2023-04-01T08:30:27;60.81;45.98;84.19;;
38366;Laerm;943;51.568;6.998;2023-04-01T08:33:27;66.83;46.69;89.58;;
38366;Laerm;943;51.568;6.998;2023-04-01T08:36:38;66.14;46.19;90.40;;
38366;Laerm;943;51.568;6.998;2023-04-01T08:40:32;73.93;44.62;92.37;;
38366;Laerm;943;51.568;6.998;2023-04-01T08:44:11;65.63;44.96;87.97;;
38366;Laerm;943;51.568;6.998;2023-04-01T08:54:49;60.42;44.21;83.03;;
38366;Laerm;943;51.568;6.998;2023-04-01T09:01:53;72.00;45.43;93.35;;
38366;Laerm;943;51.568;6.998;2023-04-01T09:05:55;71.19;44.86;92.07;;
38366;Laerm;943;51.568;6.998;2023-04-01T09:09:45;74.30;45.36;93.20;;
38366;Laerm;943;51.568;6.998;2023-04-01T09:15:58;72.62;45.04;96.72;;
38366;Laerm;943;51.568;6.998;2023-04-01T09:39:12;80.24;45.09;96.51;;
38366;Laerm;943;51.568;6.998;2023-04-01T09:51:46;62.30;46.28;83.97;;
38366;Laerm;943;51.568;6.998;2023-04-01T10:09:37;64.58;44.24;85.44;;
38366;Laerm;943;51.568;6.998;2023-04-01T10:16:20;53.94;45.45;73.77;;
38366;Laerm;943;51.568;6.998;2023-04-01T10:19:49;58.93;45.92;82.96;;
38366;Laerm;943;51.568;6.998;2023-04-01T10:23:22;59.46;45.44;85.00;;
38366;Laerm;943;51.568;6.998;2023-04-01T10:26:50;65.22;46.31;84.00;;
38366;Laerm;943;51.568;6.998;2023-04-01T10:33:50;71.52;45.40;91.08;;
38366;Laerm;943;51.568;6.998;2023-04-01T10:36:54;69.67;45.24;90.26;;
38366;Laerm;943;51.568;6.998;2023-04-01T10:40:34;68.73;45.83;87.00;;
38366;Laerm;943;51.568;6.998;2023-04-01T10:55:19;52.77;46.22;69.44;;
38366;Laerm;943;51.568;6.998;2023-04-01T11:37:05;69.73;45.64;90.51;;
38366;Laerm;943;51.568;6.998;2023-04-01T12:07:55;54.19;47.59;76.81;;
38366;Laerm;943;51.568;6.998;2023-04-01T12:11:37;69.21;46.79;87.88;;
38366;Laerm;943;51.568;6.998;2023-04-01T12:33:45;64.01;49.26;82.23;;
38366;Laerm;943;51.568;6.998;2023-04-01T12:37:21;64.75;48.90;87.70;;
38366;Laerm;943;51.568;6.998;2023-04-01T12:40:27;65.12;48.08;83.87;;
38366;Laerm;943;51.568;6.998;2023-04-01T12:46:47;77.99;47.24;99.61;;
38366;Laerm;943;51.568;6.998;2023-04-01T13:03:24;64.00;47.02;85.81;;
38366;Laerm;943;51.568;6.998;2023-04-01T13:06:58;68.50;47.28;92.81;;
38366;Laerm;943;51.568;6.998;2023-04-01T13:10:25;66.17;46.54;89.24;;
38366;Laerm;943;51.568;6.998;2023-04-01T13:13:18;75.33;46.05;93.77;;
38366;Laerm;943;51.568;6.998;2023-04-01T13:16:24;78.45;46.38;96.57;;
38366;Laerm;943;51.568;6.998;2023-04-01T13:19:33;62.10;46.83;82.12;;
38366;Laerm;943;51.568;6.998;2023-04-01T13:22:56;72.34;48.64;91.02;;
38366;Laerm;943;51.568;6.998;2023-04-01T13:32:32;49.01;45.73;62.06;;
38366;Laerm;943;51.568;6.998;2023-04-01T13:42:16;68.46;47.26;86.97;;
38366;Laerm;943;51.568;6.998;2023-04-01T13:45:23;68.09;46.59;88.88;;
38366;Laerm;943;51.568;6.998;2023-04-01T13:52:10;59.07;46.45;77.08;;
38366;Laerm;943;51.568;6.998;2023-04-01T14:06:01;67.47;44.42;91.64;;
38366;Laerm;943;51.568;6.998;2023-04-01T14:09:11;65.01;44.62;83.43;;
38366;Laerm;943;51.568;6.998;2023-04-01T14:12:25;59.56;44.20;82.05;;
38366;Laerm;943;51.568;6.998;2023-04-01T14:15:42;61.76;45.47;82.42;;
38366;Laerm;943;51.568;6.998;2023-04-01T14:25:38;65.55;44.56;87.08;;
38366;Laerm;943;51.568;6.998;2023-04-01T14:38:25;51.10;43.35;71.91;;
38366;Laerm;943;51.568;6.998;2023-04-01T14:47:56;70.13;46.32;90.12;;
38366;Laerm;943;51.568;6.998;2023-04-01T14:50:44;62.31;45.99;80.74;;
38366;Laerm;943;51.568;6.998;2023-04-01T14:53:41;67.05;44.03;88.25;;
38366;Laerm;943;51.568;6.998;2023-04-01T14:56:50;54.49;44.85;75.10;;
38366;Laerm;943;51.568;6.998;2023-04-01T15:12:07;58.05;43.90;78.12;;
38366;Laerm;943;51.568;6.998;2023-04-01T15:15:22;54.66;44.16;76.66;;
38366;Laerm;943;51.568;6.998;2023-04-01T15:24:43;60.46;44.97;83.60;;
38366;Laerm;943;51.568;6.998;2023-04-01T15:41:16;58.35;46.57;79.49;;
38366;Laerm;943;51.568;6.998;2023-04-01T15:43:51;71.50;46.74;92.44;;
38366;Laerm;943;51.568;6.998;2023-04-01T15:46:46;57.56;47.20;80.34;;
38366;Laerm;943;51.568;6.998;2023-04-01T15:49:41;69.13;49.67;93.26;;
38366;Laerm;943;51.568;6.998;2023-04-01T15:55:59;56.95;47.97;80.72;;
38366;Laerm;943;51.568;6.998;2023-04-01T15:59:18;70.07;47.16;88.40;;
38366;Laerm;943;51.568;6.998;2023-04-01T16:06:23;59.66;45.27;82.44;;
38366;Laerm;943;51.568;6.998;2023-04-01T16:09:25;62.57;45.87;88.74;;
38366;Laerm;943;51.568;6.998;2023-04-01T16:19:10;68.69;46.07;89.52;;
38366;Laerm;943;51.568;6.998;2023-04-01T16:21:59;52.39;46.62;68.74;;
38366;Laerm;943;51.568;6.998;2023-04-01T16:28:18;58.57;45.72;78.85;;
38366;Laerm;943;51.568;6.998;2023-04-01T16:31:10;69.11;45.20;90.19;;
38366;Laerm;943;51.568;6.998;2023-04-01T16:34:11;62.13;43.72;83.85;;
38366;Laerm;943;51.568;6.998;2023-04-01T16:37:05;49.76;46.47;64.98;;
38366;Laerm;943;51.568;6.998;2023-04-01T16:42:56;49.25;44.20;63.36;;
38366;Laerm;943;51.568;6.998;2023-04-01T16:54:50;52.05;48.16;66.86;;
38366;Laerm;943;51.568;6.998;2023-04-01T16:57:50;52.37;48.55;64.15;;
38366;Laerm;943;51.568;6.998;2023-04-01T17:00:48;54.73;49.01;71.46;;
38366;Laerm;943;51.568;6.998;2023-04-01T17:03:46;50.44;46.10;62.22;;
38366;Laerm;943;51.568;6.998;2023-04-01T17:06:55;50.28;45.24;66.72;;
38366;Laerm;943;51.568;6.998;2023-04-01T17:16:35;51.41;44.40;66.18;;
38366;Laerm;943;51.568;6.998;2023-04-01T17:23:58;51.66;45.97;71.48;;
38366;Laerm;943;51.568;6.998;2023-04-01T17:26:57;52.91;47.26;70.33;;
38366;Laerm;943;51.568;6.998;2023-04-01T17:36:45;49.03;45.68;60.08;;
38366;Laerm;943;51.568;6.998;2023-04-01T17:42:56;50.22;45.71;62.56;;
38366;Laerm;943;51.568;6.998;2023-04-01T17:45:56;49.07;44.37;62.11;;
38366;Laerm;943;51.568;6.998;2023-04-01T17:49:05;48.88;44.62;61.48;;
38366;Laerm;943;51.568;6.998;2023-04-01T17:51:59;49.08;44.77;63.56;;
38366;Laerm;943;51.568;6.998;2023-04-01T17:58:03;48.01;44.82;64.43;;
38366;Laerm;943;51.568;6.998;2023-04-01T18:11:12;49.31;42.08;69.30;;
38366;Laerm;943;51.568;6.998;2023-04-01T18:17:27;48.53;42.15;63.21;;
38366;Laerm;943;51.568;6.998;2023-04-01T18:24:06;61.99;43.37;78.97;;
38366;Laerm;943;51.568;6.998;2023-04-01T18:27:03;54.79;42.51;73.67;;
38366;Laerm;943;51.568;6.998;2023-04-01T18:30:07;54.91;43.24;74.54;;
38366;Laerm;943;51.568;6.998;2023-04-01T18:33:26;48.23;42.99;63.70;;
38366;Laerm;943;51.568;6.998;2023-04-01T18:36:41;66.40;42.41;85.62;;
38366;Laerm;943;51.568;6.998;2023-04-01T18:39:35;47.39;43.02;65.73;;
38366;Laerm;943;51.568;6.998;2023-04-01T18:46:05;56.68;43.84;77.82;;
38366;Laerm;943;51.568;6.998;2023-04-01T18:52:36;46.19;40.50;64.55;;
38366;Laerm;943;51.568;6.998;2023-04-01T18:55:36;59.50;40.87;93.23;;
38366;Laerm;943;51.568;6.998;2023-04-01T18:58:42;66.10;41.86;89.43;;
38366;Laerm;943;51.568;6.998;2023-04-01T19:02:34;51.73;42.14;64.37;;
38366;Laerm;943;51.568;6.998;2023-04-01T19:05:33;64.48;43.73;87.62;;
38366;Laerm;943;51.568;6.998;2023-04-01T19:08:30;66.01;41.78;90.98;;
38366;Laerm;943;51.568;6.998;2023-04-01T19:16:25;52.25;42.98;74.59;;
38366;Laerm;943;51.568;6.998;2023-04-01T19:21:55;55.28;42.22;79.70;;
38366;Laerm;943;51.568;6.998;2023-04-01T19:25:12;54.57;44.45;77.73;;
38366;Laerm;943;51.568;6.998;2023-04-01T19:28:00;56.05;42.69;79.22;;
38366;Laerm;943;51.568;6.998;2023-04-01T19:31:31;47.80;41.94;65.77;;
38366;Laerm;943;51.568;6.998;2023-04-01T19:38:14;49.21;43.92;69.13;;
38366;Laerm;943;51.568;6.998;2023-04-01T19:41:29;47.75;41.61;58.51;;
38366;Laerm;943;51.568;6.998;2023-04-01T19:44:41;49.97;41.37;69.96;;
38366;Laerm;943;51.568;6.998;2023-04-01T19:48:01;56.33;43.63;78.98;;
38366;Laerm;943;51.568;6.998;2023-04-01T19:51:07;56.37;41.92;84.06;;
38366;Laerm;943;51.568;6.998;2023-04-01T19:58:03;62.54;42.23;87.17;;
38366;Laerm;943;51.568;6.998;2023-04-01T20:00:53;61.29;43.54;89.07;;
38366;Laerm;943;51.568;6.998;2023-04-01T20:04:04;54.30;41.83;77.66;;
38366;Laerm;943;51.568;6.998;2023-04-01T20:07:43;58.58;43.33;84.09;;
38366;Laerm;943;51.568;6.998;2023-04-01T20:13:53;72.04;42.57;95.38;;
38366;Laerm;943;51.568;6.998;2023-04-01T20:19:57;55.69;42.38;80.30;;
38366;Laerm;943;51.568;6.998;2023-04-01T20:25:52;50.87;43.69;74.75;;
38366;Laerm;943;51.568;6.998;2023-04-01T20:31:35;51.51;41.30;80.25;;
38366;Laerm;943;51.568;6.998;2023-04-01T20:48:39;53.23;41.83;77.91;;
38366;Laerm;943;51.568;6.998;2023-04-01T20:51:22;52.34;43.20;77.45;;
38366;Laerm;943;51.568;6.998;2023-04-01T20:54:30;50.75;42.55;75.19;;
38366;Laerm;943;51.568;6.998;2023-04-01T21:08:31;61.85;41.62;84.04;;
38366;Laerm;943;51.568;6.998;2023-04-01T21:14:35;48.32;43.40;65.43;;
38366;Laerm;943;51.568;6.998;2023-04-01T21:27:11;67.56;45.15;91.21;;
38366;Laerm;943;51.568;6.998;2023-04-01T21:44:26;54.68;42.47;81.26;;
38366;Laerm;943;51.568;6.998;2023-04-01T22:07:19;54.09;42.65;82.22;;
38366;Laerm;943;51.568;6.998;2023-04-01T22:13:28;57.67;41.32;85.31;;
38366;Laerm;943;51.568;6.998;2023-04-01T22:22:15;53.92;41.70;82.92;;
38366;Laerm;943;51.568;6.998;2023-04-01T22:25:14;71.42;41.02;92.60;;
38366;Laerm;943;51.568;6.998;2023-04-01T22:28:09;58.55;43.73;80.80;;
38366;Laerm;943;51.568;6.998;2023-04-01T22:30:52;66.79;41.75;91.86;;
38366;Laerm;943;51.568;6.998;2023-04-01T22:38:03;64.71;41.97;91.79;;
38366;Laerm;943;51.568;6.998;2023-04-01T22:43:45;56.05;43.25;78.96;;
38366;Laerm;943;51.568;6.998;2023-04-01T22:47:15;55.94;40.90;82.55;;
38366;Laerm;943;51.568;6.998;2023-04-01T22:52:46;47.26;38.02;68.06;;
38366;Laerm;943;51.568;6.998;2023-04-01T22:55:34;51.19;40.86;74.14;;
38366;Laerm;943;51.568;6.998;2023-04-01T22:58:38;47.03;38.28;72.67;;
38366;Laerm;943;51.568;6.998;2023-04-01T23:01:24;47.78;40.48;71.59;;
38366;Laerm;943;51.568;6.998;2023-04-01T23:03:55;51.09;39.48;77.22;;
38366;Laerm;943;51.568;6.998;2023-04-01T23:06:44;54.29;39.14;79.93;;
38366;Laerm;943;51.568;6.998;2023-04-01T23:09:37;49.18;41.60;73.17;;
38366;Laerm;943;51.568;6.998;2023-04-01T23:12:13;46.90;41.52;64.12;;
38366;Laerm;943;51.568;6.998;2023-04-01T23:14:58;53.54;38.56;81.54;;
38366;Laerm;943;51.568;6.998;2023-04-01T23:18:28;46.09;40.11;62.47;;
38366;Laerm;943;51.568;6.998;2023-04-01T23:21:51;69.22;41.05;94.75;;
38366;Laerm;943;51.568;6.998;2023-04-01T23:24:46;58.36;41.61;83.39;;
38366;Laerm;943;51.568;6.998;2023-04-01T23:27:37;55.89;39.53;79.16;;
38366;Laerm;943;51.568;6.998;2023-04-01T23:30:53;45.59;39.47;59.57;;
38366;Laerm;943;51.568;6.998;2023-04-01T23:33:31;45.30;40.11;65.70;;
38366;Laerm;943;51.568;6.998;2023-04-01T23:36:14;56.10;39.12;80.71;;
38366;Laerm;943;51.568;6.998;2023-04-01T23:38:49;45.58;40.39;51.38;;
38366;Laerm;943;51.568;6.998;2023-04-01T23:41:30;43.33;39.06;49.63;;
38366;Laerm;943;51.568;6.998;2023-04-01T23:44:13;43.91;37.38;66.58;;
38366;Laerm;943;51.568;6.998;2023-04-01T23:46:46;42.35;37.62;63.12;;
38366;Laerm;943;51.568;6.998;2023-04-01T23:50:03;48.52;39.93;72.77;;
38366;Laerm;943;51.568;6.998;2023-04-01T23:52:43;54.07;39.40;80.97;;
38366;Laerm;943;51.568;6.998;2023-04-01T23:55:34;60.67;38.39;84.08;;
38366;Laerm;943;51.568;6.998;2023-04-01T23:58:22;49.17;39.63;73.59;;
